Terminal Aerodrome Forecast
Issued by NWS

Home | Current Version | Previous Version | Text Only | Print | Product List | Glossary On
Versions: 1 2 3 4 5 6 7 8 9 10 11 12 13 14 15 16 17 18 19 20 21 22 23
000
FTUS41 KGYX 052320
TAFHIE
TAF
KHIE 052320Z 0600/0624 05007KT P6SM OVC029
     FM060300 09004KT P6SM OVC050
     FM060900 05003KT P6SM FEW250
     FM062100 12011KT P6SM SCT250=

USA.gov is the U.S. government's official web portal to all federal, state and local government web resources and services.